createdAt,value
2023-03-13T00:00:54.759Z,4.88
2023-03-13T00:03:22.752Z,5.03
2023-03-13T00:05:50.585Z,5.05
2023-03-13T00:08:18.244Z,5.07
2023-03-13T00:10:45.919Z,5.10
2023-03-13T00:13:15.393Z,5.07
2023-03-13T00:15:43.089Z,5.08
2023-03-13T00:18:10.815Z,5.11
2023-03-13T00:20:38.468Z,5.02
2023-03-13T00:23:06.108Z,5.20
2023-03-13T00:25:33.778Z,5.17
2023-03-13T00:28:01.551Z,5.23
2023-03-13T00:30:30.665Z,5.33
2023-03-13T00:32:58.536Z,5.27
2023-03-13T00:35:26.328Z,5.26
2023-03-13T00:37:53.946Z,5.33
2023-03-13T00:40:21.638Z,5.33
2023-03-13T00:42:49.262Z,5.34
2023-03-13T00:45:17.173Z,5.31
2023-03-13T00:47:46.186Z,5.50
2023-03-13T00:50:13.877Z,5.46
2023-03-13T00:52:41.529Z,5.47
2023-03-13T00:55:10.285Z,5.50
2023-03-13T00:57:38.472Z,5.54
2023-03-13T01:00:07.213Z,5.56
2023-03-13T01:02:35.046Z,5.58
2023-03-13T01:05:04.261Z,5.62
2023-03-13T01:07:31.946Z,5.52
2023-03-13T01:09:59.638Z,5.70
2023-03-13T01:12:27.316Z,5.59
2023-03-13T01:14:55.143Z,5.57
2023-03-13T01:17:22.794Z,5.47
2023-03-13T01:19:50.874Z,5.59
2023-03-13T01:22:19.895Z,5.55
2023-03-13T01:24:52.203Z,5.62
2023-03-13T01:27:20.119Z,5.56
2023-03-13T01:29:47.749Z,5.57
2023-03-13T01:32:15.439Z,5.60
2023-03-13T01:34:43.103Z,5.51
2023-03-13T01:37:10.840Z,5.58
2023-03-13T01:39:39.906Z,5.49
2023-03-13T01:42:09.533Z,5.54
2023-03-13T01:44:51.259Z,5.59
2023-03-13T01:47:18.952Z,5.54
2023-03-13T01:49:48.449Z,5.56
2023-03-13T01:52:19.543Z,5.64
2023-03-13T01:54:53.004Z,5.55
2023-03-13T01:57:25.633Z,5.64
2023-03-13T01:59:58.313Z,5.56
2023-03-13T02:02:27.280Z,5.65
2023-03-13T02:04:57.603Z,5.61
2023-03-13T02:07:30.513Z,5.60
2023-03-13T02:10:00.013Z,5.58
2023-03-13T02:12:32.833Z,5.54
2023-03-13T02:15:05.220Z,5.47
2023-03-13T02:17:35.221Z,5.51
2023-03-13T02:20:03.824Z,5.44
2023-03-13T02:22:38.920Z,5.53
2023-03-13T02:25:13.747Z,5.53
2023-03-13T02:27:45.900Z,5.43
2023-03-13T02:30:15.902Z,5.54
2023-03-13T02:32:45.281Z,5.39
2023-03-13T02:35:15.732Z,5.44
2023-03-13T02:37:45.342Z,5.57
2023-03-13T02:40:16.710Z,5.45
2023-03-13T02:42:46.905Z,5.52
2023-03-13T02:45:16.373Z,5.60
2023-03-13T02:47:45.028Z,5.59
2023-03-13T02:50:14.297Z,5.47
2023-03-13T02:52:46.004Z,5.56
2023-03-13T02:55:18.006Z,5.61
2023-03-13T02:57:47.060Z,5.63
2023-03-13T03:00:17.386Z,5.71
2023-03-13T03:02:45.431Z,5.71
2023-03-13T03:05:14.184Z,5.62
2023-03-13T03:07:41.850Z,5.63
2023-03-13T03:10:10.342Z,5.67
2023-03-13T03:12:37.987Z,5.72
2023-03-13T03:15:08.330Z,5.68
2023-03-13T03:17:36.860Z,5.80
2023-03-13T03:20:07.864Z,5.90
2023-03-13T03:22:37.642Z,5.78
2023-03-13T03:25:06.289Z,5.87
2023-03-13T03:27:33.934Z,5.97
2023-03-13T03:30:01.628Z,5.95
2023-03-13T03:32:30.612Z,5.86
2023-03-13T03:34:58.381Z,5.97
2023-03-13T03:37:26.245Z,5.87
2023-03-13T03:39:53.909Z,5.98
2023-03-13T03:42:21.616Z,6.09
2023-03-13T03:44:49.237Z,5.99
2023-03-13T03:47:17.028Z,6.02
2023-03-13T03:49:46.112Z,6.17
2023-03-13T03:52:13.784Z,6.04
2023-03-13T03:54:41.454Z,6.12
2023-03-13T03:57:09.048Z,6.07
2023-03-13T03:59:36.697Z,6.24
2023-03-13T04:02:04.490Z,6.25
2023-03-13T04:04:32.247Z,6.15
2023-03-13T04:07:01.296Z,6.34
2023-03-13T04:09:31.835Z,6.27
2023-03-13T04:11:59.726Z,6.36
2023-03-13T04:14:27.362Z,6.24
2023-03-13T04:16:55.097Z,6.33
2023-03-13T04:19:22.865Z,6.22
2023-03-13T04:21:50.505Z,6.31
2023-03-13T04:24:19.548Z,6.36
2023-03-13T04:26:47.194Z,6.35
2023-03-13T04:29:14.858Z,6.32
2023-03-13T04:31:42.525Z,6.38
2023-03-13T04:34:10.223Z,6.27
2023-03-13T04:36:37.899Z,6.43
2023-03-13T04:39:05.835Z,6.45
2023-03-13T04:41:34.847Z,6.31
2023-03-13T04:44:02.586Z,6.49
2023-03-13T04:46:30.292Z,6.40
2023-03-13T04:48:58.083Z,6.35
2023-03-13T04:51:26.035Z,6.29
2023-03-13T04:53:53.705Z,6.35
2023-03-13T04:56:36.216Z,6.39
2023-03-13T04:59:12.717Z,6.49
2023-03-13T05:01:40.436Z,6.44
2023-03-13T05:04:08.951Z,6.50
2023-03-13T05:06:36.994Z,6.51
2023-03-13T05:09:04.991Z,6.47
2023-03-13T05:11:32.953Z,6.59
2023-03-13T05:14:00.734Z,6.57
2023-03-13T05:16:29.771Z,6.57
2023-03-13T05:18:57.396Z,6.40
2023-03-13T05:21:25.048Z,6.43
2023-03-13T05:23:52.638Z,6.55
2023-03-13T05:26:20.318Z,6.50
2023-03-13T05:28:47.976Z,6.56
2023-03-13T05:31:15.682Z,6.41
2023-03-13T05:33:44.749Z,6.52
2023-03-13T05:36:12.373Z,6.45
2023-03-13T05:38:40.163Z,6.67
2023-03-13T05:41:07.885Z,6.60
2023-03-13T05:43:35.649Z,6.62
2023-03-13T05:46:03.374Z,6.57
2023-03-13T05:48:31.086Z,6.57
2023-03-13T05:51:00.156Z,6.63
2023-03-13T05:53:27.810Z,6.62
2023-03-13T05:55:55.478Z,6.58
2023-03-13T05:58:23.220Z,6.56
2023-03-13T06:00:50.891Z,6.64
2023-03-13T06:03:18.657Z,6.63
2023-03-13T06:05:46.351Z,6.61
2023-03-13T06:08:15.401Z,6.57
2023-03-13T06:10:43.083Z,6.60
2023-03-13T06:13:19.254Z,6.65
2023-03-13T06:15:52.435Z,6.70
2023-03-13T06:18:20.202Z,6.67
2023-03-13T06:20:49.123Z,6.70
2023-03-13T06:23:18.183Z,6.59
2023-03-13T06:25:48.830Z,6.48
2023-03-13T06:28:16.641Z,6.56
2023-03-13T06:30:44.380Z,6.58
2023-03-13T06:33:12.215Z,6.51
2023-03-13T06:35:55.201Z,6.60
2023-03-13T06:38:24.706Z,6.47
2023-03-13T06:40:52.465Z,6.64
2023-03-13T06:43:20.469Z,6.62
2023-03-13T06:45:48.261Z,6.64
2023-03-13T06:48:15.898Z,6.59
2023-03-13T06:50:43.972Z,6.63
2023-03-13T06:53:17.115Z,6.50
2023-03-13T06:55:47.262Z,6.50
2023-03-13T06:58:29.249Z,6.51
2023-03-13T07:00:59.881Z,6.55
2023-03-13T07:03:27.663Z,6.69
2023-03-13T07:05:57.783Z,6.65
2023-03-13T07:08:26.119Z,6.59
2023-03-13T07:10:59.018Z,6.60
2023-03-13T07:13:26.745Z,6.72
2023-03-13T07:15:54.771Z,6.74
2023-03-13T07:18:23.322Z,6.75
2023-03-13T07:20:56.018Z,6.80
2023-03-13T07:23:24.755Z,6.70
2023-03-13T07:25:58.409Z,6.87
2023-03-13T07:28:27.080Z,6.87
2023-03-13T07:30:55.065Z,6.85
2023-03-13T07:33:22.700Z,6.87
2023-03-13T07:35:50.636Z,7.02
2023-03-13T07:38:18.803Z,7.00
2023-03-13T07:40:50.766Z,6.97
2023-03-13T07:43:20.574Z,6.95
2023-03-13T07:45:55.939Z,6.88
2023-03-13T07:48:27.224Z,6.90
2023-03-13T07:50:56.212Z,7.01
2023-03-13T07:53:24.263Z,7.05
2023-03-13T07:55:57.317Z,7.11
2023-03-13T07:58:29.608Z,7.06
2023-03-13T08:00:57.930Z,7.02
2023-03-13T08:03:26.134Z,7.14
2023-03-13T08:06:01.213Z,7.12
2023-03-13T08:08:29.540Z,7.14
2023-03-13T08:11:01.344Z,7.07
2023-03-13T08:13:31.262Z,7.12
2023-03-13T08:16:07.864Z,7.20
2023-03-13T08:18:36.228Z,7.18
2023-03-13T08:21:04.924Z,7.17
2023-03-13T08:23:33.189Z,7.18
2023-03-13T08:26:05.958Z,7.17
2023-03-13T08:28:35.484Z,7.30
2023-03-13T08:31:09.265Z,7.27
2023-03-13T08:33:37.306Z,7.29
2023-03-13T08:36:17.497Z,7.24
2023-03-13T08:38:46.692Z,7.29
2023-03-13T08:41:15.936Z,7.34
2023-03-13T08:43:45.217Z,7.38
2023-03-13T08:46:13.540Z,7.44
2023-03-13T08:48:41.471Z,7.45
2023-03-13T08:51:11.655Z,7.50
2023-03-13T08:53:41.638Z,7.55
2023-03-13T08:56:10.571Z,7.49
2023-03-13T08:58:38.673Z,7.56
2023-03-13T09:01:10.095Z,7.62
2023-03-13T09:03:38.239Z,7.58
2023-03-13T09:06:06.312Z,7.59
2023-03-13T09:08:34.888Z,7.70
2023-03-13T09:11:04.686Z,7.65
2023-03-13T09:13:34.161Z,7.68
2023-03-13T09:16:03.484Z,7.77
2023-03-13T09:18:33.099Z,7.79
2023-03-13T09:21:00.875Z,7.79
2023-03-13T09:23:28.664Z,7.83
2023-03-13T09:25:57.973Z,7.91
2023-03-13T09:28:27.046Z,7.94
2023-03-13T09:30:55.543Z,7.91
2023-03-13T09:33:24.862Z,7.92
2023-03-13T09:35:53.963Z,7.94
2023-03-13T09:38:22.936Z,8.01
2023-03-13T09:41:05.365Z,8.03
2023-03-13T09:43:46.418Z,8.07
2023-03-13T09:46:19.432Z,8.06
2023-03-13T09:48:50.183Z,8.13
2023-03-13T09:51:22.460Z,8.04
2023-03-13T09:53:56.519Z,8.03
2023-03-13T09:56:26.380Z,8.15
2023-03-13T09:58:58.187Z,8.18
2023-03-13T10:01:31.219Z,8.21
2023-03-13T10:04:06.558Z,8.17
2023-03-13T10:06:41.640Z,8.26
2023-03-13T10:09:21.466Z,8.28
2023-03-13T10:11:56.165Z,8.27
2023-03-13T10:14:30.876Z,8.31
2023-03-13T10:17:05.885Z,8.40
2023-03-13T10:19:37.737Z,8.43
2023-03-13T10:22:14.289Z,8.45
2023-03-13T10:24:47.798Z,8.50
2023-03-13T10:27:16.594Z,8.49
2023-03-13T10:29:44.487Z,8.50
2023-03-13T10:32:15.044Z,8.51
2023-03-13T10:34:47.533Z,8.61
2023-03-13T10:37:20.673Z,8.58
2023-03-13T10:39:48.460Z,8.65
2023-03-13T10:42:24.298Z,8.72
2023-03-13T10:44:58.129Z,8.74
2023-03-13T10:47:26.051Z,8.80
2023-03-13T10:49:57.289Z,8.86
2023-03-13T10:52:35.940Z,9.00
2023-03-13T10:55:06.650Z,9.06
2023-03-13T10:57:36.105Z,9.15
2023-03-13T11:00:23.825Z,9.24
2023-03-13T11:02:51.848Z,9.34
2023-03-13T11:05:37.735Z,9.39
2023-03-13T11:08:23.938Z,9.52
2023-03-13T11:11:00.196Z,9.59
2023-03-13T11:13:36.836Z,9.67
2023-03-13T11:16:18.842Z,9.74
2023-03-13T11:18:59.118Z,9.79
2023-03-13T11:21:38.583Z,9.92
2023-03-13T11:24:14.614Z,10.10
2023-03-13T11:27:04.095Z,10.28
2023-03-13T11:29:41.150Z,10.38
2023-03-13T11:32:21.146Z,10.41
2023-03-13T11:34:54.508Z,10.52
2023-03-13T11:37:23.731Z,10.51
2023-03-13T11:40:10.837Z,10.53
2023-03-13T11:42:54.696Z,10.57
2023-03-13T11:45:49.068Z,10.68
2023-03-13T11:48:25.249Z,10.77
2023-03-13T11:50:59.729Z,10.86
2023-03-13T11:53:37.611Z,10.92
2023-03-13T11:56:14.272Z,10.99
2023-03-13T11:59:04.041Z,11.09
2023-03-13T12:01:35.493Z,11.14
2023-03-13T12:04:08.401Z,11.15
2023-03-13T12:06:38.972Z,11.22
2023-03-13T12:09:12.029Z,11.25
2023-03-13T12:11:48.024Z,11.37
2023-03-13T12:14:22.505Z,11.37
2023-03-13T12:16:54.838Z,11.46
2023-03-13T12:19:29.498Z,11.42
2023-03-13T12:21:59.432Z,11.61
2023-03-13T12:24:33.809Z,11.72
2023-03-13T12:27:11.774Z,11.76
2023-03-13T12:29:47.174Z,11.83
2023-03-13T12:32:19.191Z,12.02
2023-03-13T12:34:56.665Z,12.09
2023-03-13T12:37:32.326Z,12.12
2023-03-13T12:40:08.617Z,12.19
2023-03-13T12:42:52.245Z,12.35
2023-03-13T12:45:24.209Z,12.48
2023-03-13T12:48:18.050Z,12.54
2023-03-13T12:51:03.883Z,12.70
2023-03-13T12:53:58.305Z,12.76
2023-03-13T12:56:44.304Z,12.80
2023-03-13T12:59:17.235Z,12.98
2023-03-13T13:01:48.974Z,13.19
2023-03-13T13:04:19.435Z,13.42
2023-03-13T13:06:55.062Z,13.57
2023-03-13T13:09:24.926Z,13.67
2023-03-13T13:11:55.154Z,13.81
2023-03-13T13:14:58.954Z,13.94
2023-03-13T13:17:46.591Z,14.12
2023-03-13T13:20:48.505Z,14.20
2023-03-13T13:23:34.976Z,14.25
2023-03-13T13:26:47.281Z,14.36
2023-03-13T13:29:57.971Z,14.30
2023-03-13T13:32:49.491Z,14.24
2023-03-13T13:35:41.322Z,14.15
2023-03-13T13:38:36.552Z,14.23
2023-03-13T13:41:08.690Z,14.36
2023-03-13T13:43:38.178Z,14.37
2023-03-13T13:46:19.767Z,14.40
2023-03-13T13:48:47.576Z,14.42
2023-03-13T13:51:25.477Z,14.42
2023-03-13T13:53:56.899Z,14.52
2023-03-13T13:56:36.487Z,14.47
2023-03-13T13:59:17.841Z,14.40
2023-03-13T14:01:46.202Z,14.35
2023-03-13T14:04:17.904Z,14.31
2023-03-13T14:06:50.485Z,14.31
2023-03-13T14:09:36.409Z,14.34
2023-03-13T14:12:26.725Z,14.39
2023-03-13T14:15:08.657Z,14.32
2023-03-13T14:17:41.330Z,14.44
2023-03-13T14:20:20.786Z,14.51
2023-03-13T14:22:51.151Z,14.48
2023-03-13T14:25:18.808Z,14.55
2023-03-13T14:27:49.184Z,14.52
2023-03-13T14:30:19.912Z,14.77
2023-03-13T14:32:48.056Z,14.70
2023-03-13T14:35:19.398Z,14.59
2023-03-13T14:37:50.246Z,14.59
2023-03-13T14:40:24.855Z,14.55
2023-03-13T14:42:54.360Z,14.59
2023-03-13T14:45:26.522Z,14.60
2023-03-13T14:47:56.316Z,14.53
2023-03-13T14:50:25.964Z,14.52
2023-03-13T14:52:59.579Z,14.48
2023-03-13T14:55:31.243Z,14.46
2023-03-13T14:58:00.972Z,14.44
2023-03-13T15:00:38.140Z,14.40
2023-03-13T15:03:30.156Z,14.52
2023-03-13T15:06:07.318Z,14.48
2023-03-13T15:08:38.636Z,14.56
2023-03-13T15:11:20.184Z,14.57
2023-03-13T15:13:48.187Z,14.74
2023-03-13T15:16:19.728Z,14.80
2023-03-13T15:18:48.523Z,14.77
2023-03-13T15:21:25.643Z,14.75
2023-03-13T15:23:57.334Z,14.65
2023-03-13T15:26:25.214Z,14.70
2023-03-13T15:28:53.133Z,14.63
2023-03-13T15:31:26.180Z,14.64
2023-03-13T15:33:58.056Z,14.58
2023-03-13T15:36:26.313Z,14.68
2023-03-13T15:38:55.663Z,14.68
2023-03-13T15:41:24.394Z,14.67
2023-03-13T15:43:55.146Z,14.58
2023-03-13T15:46:23.216Z,14.56
2023-03-13T15:48:51.735Z,14.42
2023-03-13T15:51:20.818Z,14.39
2023-03-13T15:53:48.433Z,14.31
2023-03-13T15:56:19.786Z,14.34
2023-03-13T15:58:48.919Z,14.22
2023-03-13T16:01:17.966Z,14.19
2023-03-13T16:03:46.131Z,14.13
2023-03-13T16:06:20.590Z,14.11
2023-03-13T16:08:48.612Z,14.11
2023-03-13T16:11:18.148Z,14.19
2023-03-13T16:13:45.921Z,14.17
2023-03-13T16:16:21.298Z,14.12
2023-03-13T16:18:49.924Z,14.07
2023-03-13T16:21:20.869Z,14.02
2023-03-13T16:23:48.935Z,14.02
2023-03-13T16:26:20.282Z,14.05
2023-03-13T16:28:48.873Z,14.01
2023-03-13T16:31:20.044Z,13.86
2023-03-13T16:33:48.591Z,13.90
2023-03-13T16:36:17.840Z,13.91
2023-03-13T16:38:46.323Z,13.91
2023-03-13T16:41:16.368Z,13.96
2023-03-13T16:43:46.195Z,13.90
2023-03-13T16:46:16.610Z,13.88
2023-03-13T16:48:45.348Z,13.87
2023-03-13T16:51:18.243Z,13.87
2023-03-13T16:53:47.341Z,13.86
2023-03-13T16:56:21.513Z,13.85
2023-03-13T16:58:50.601Z,13.87
2023-03-13T17:01:18.541Z,13.80
2023-03-13T17:03:46.942Z,13.72
2023-03-13T17:06:17.333Z,13.73
2023-03-13T17:08:45.552Z,13.76
2023-03-13T17:11:17.914Z,13.79
2023-03-13T17:13:47.607Z,13.65
2023-03-13T17:16:19.632Z,13.66
2023-03-13T17:18:51.486Z,13.69
2023-03-13T17:21:21.536Z,13.54
2023-03-13T17:23:49.368Z,13.60
2023-03-13T17:26:20.386Z,13.50
2023-03-13T17:28:49.692Z,13.47
2023-03-13T17:31:19.879Z,13.53
2023-03-13T17:33:48.323Z,13.58
2023-03-13T17:36:18.642Z,13.57
2023-03-13T17:38:47.373Z,13.58
2023-03-13T17:41:17.316Z,13.62
2023-03-13T17:43:45.355Z,13.56
2023-03-13T17:46:16.897Z,13.55
2023-03-13T17:48:47.044Z,13.52
2023-03-13T17:51:17.457Z,13.52
2023-03-13T17:53:45.301Z,13.57
2023-03-13T17:56:14.928Z,13.46
2023-03-13T17:58:42.655Z,13.54
2023-03-13T18:01:13.721Z,13.36
2023-03-13T18:03:41.985Z,13.41
2023-03-13T18:06:22.373Z,13.37
2023-03-13T18:08:51.247Z,13.30
2023-03-13T18:11:19.250Z,13.34
2023-03-13T18:13:47.954Z,13.40
2023-03-13T18:16:18.443Z,13.24
2023-03-13T18:18:45.927Z,13.25
2023-03-13T18:21:13.665Z,13.27
2023-03-13T18:23:43.995Z,13.37
2023-03-13T18:26:21.983Z,13.24
2023-03-13T18:28:49.800Z,13.31
2023-03-13T18:31:17.601Z,13.29
2023-03-13T18:33:47.662Z,13.28
2023-03-13T18:36:18.580Z,13.36
2023-03-13T18:38:48.871Z,13.31
2023-03-13T18:41:17.251Z,13.42
2023-03-13T18:43:45.601Z,13.38
2023-03-13T18:46:18.091Z,13.40
2023-03-13T18:48:46.044Z,13.33
2023-03-13T18:51:17.266Z,13.34
2023-03-13T18:53:45.680Z,13.33
2023-03-13T18:56:20.560Z,13.37
2023-03-13T18:58:50.563Z,13.36
2023-03-13T19:01:20.671Z,13.27
2023-03-13T19:03:49.235Z,13.25
2023-03-13T19:06:21.670Z,13.26
2023-03-13T19:08:50.813Z,13.32
2023-03-13T19:11:21.898Z,13.12
2023-03-13T19:13:49.935Z,13.10
2023-03-13T19:16:20.065Z,13.21
2023-03-13T19:18:48.663Z,13.14
2023-03-13T19:21:22.724Z,13.19
2023-03-13T19:23:51.024Z,13.14
2023-03-13T19:26:27.029Z,13.07
2023-03-13T19:28:54.802Z,13.11
2023-03-13T19:31:23.068Z,13.12
2023-03-13T19:33:53.244Z,13.06
2023-03-13T19:36:23.287Z,13.03
2023-03-13T19:38:51.433Z,13.07
2023-03-13T19:41:20.660Z,13.05
2023-03-13T19:43:48.847Z,12.98
2023-03-13T19:46:25.773Z,12.92
2023-03-13T19:48:55.063Z,12.96
2023-03-13T19:51:23.648Z,12.98
2023-03-13T19:53:52.023Z,12.92
2023-03-13T19:56:22.832Z,12.95
2023-03-13T19:58:52.067Z,12.91
2023-03-13T20:01:20.406Z,12.83
2023-03-13T20:03:49.319Z,12.82
2023-03-13T20:06:19.087Z,12.83
2023-03-13T20:08:47.344Z,12.72
2023-03-13T20:11:15.908Z,12.70
2023-03-13T20:13:44.960Z,12.79
2023-03-13T20:16:13.421Z,12.84
2023-03-13T20:18:43.246Z,12.68
2023-03-13T20:21:11.747Z,12.84
2023-03-13T20:23:39.470Z,12.81
2023-03-13T20:26:09.801Z,12.76
2023-03-13T20:28:38.179Z,12.71
2023-03-13T20:31:08.479Z,12.75
2023-03-13T20:33:37.284Z,12.61
2023-03-13T20:36:07.667Z,12.71
2023-03-13T20:38:35.884Z,12.63
2023-03-13T20:41:03.828Z,12.64
2023-03-13T20:43:32.266Z,12.68
2023-03-13T20:46:00.483Z,12.58
2023-03-13T20:48:29.781Z,12.56
2023-03-13T20:51:00.796Z,12.58
2023-03-13T20:53:29.299Z,12.69
2023-03-13T20:55:57.010Z,12.59
2023-03-13T20:58:24.982Z,12.52
2023-03-13T21:00:52.686Z,12.55
2023-03-13T21:03:20.420Z,12.50
2023-03-13T21:05:49.550Z,12.60
2023-03-13T21:08:17.187Z,12.65
2023-03-13T21:10:44.833Z,12.72
2023-03-13T21:13:12.618Z,12.60
2023-03-13T21:15:40.594Z,12.62
2023-03-13T21:18:08.706Z,12.65
2023-03-13T21:20:36.416Z,12.61
2023-03-13T21:23:05.746Z,12.74
2023-03-13T21:25:33.587Z,12.82
2023-03-13T21:28:01.231Z,12.79
2023-03-13T21:30:29.020Z,12.74
2023-03-13T21:32:56.795Z,12.83
2023-03-13T21:35:24.505Z,12.86
2023-03-13T21:37:52.232Z,12.86
2023-03-13T21:40:21.494Z,12.94
2023-03-13T21:42:49.272Z,12.89
2023-03-13T21:45:17.108Z,12.92
2023-03-13T21:47:44.767Z,12.90
2023-03-13T21:50:13.423Z,12.84
2023-03-13T21:52:42.318Z,12.79
2023-03-13T21:55:12.816Z,12.71
2023-03-13T21:57:41.934Z,12.78
2023-03-13T22:00:13.771Z,12.76
2023-03-13T22:02:41.805Z,12.80
2023-03-13T22:05:10.308Z,12.73
2023-03-13T22:07:37.986Z,12.65
2023-03-13T22:10:06.363Z,12.70
2023-03-13T22:12:34.075Z,12.69
2023-03-13T22:15:03.131Z,12.66
2023-03-13T22:17:30.785Z,12.60
2023-03-13T22:19:58.543Z,12.61
2023-03-13T22:22:26.741Z,12.50
2023-03-13T22:24:55.129Z,12.51
2023-03-13T22:27:24.114Z,12.49
2023-03-13T22:29:52.017Z,12.58
2023-03-13T22:32:21.139Z,12.51
2023-03-13T22:34:49.116Z,12.45
2023-03-13T22:37:17.044Z,12.46
2023-03-13T22:39:44.712Z,12.50
2023-03-13T22:42:12.476Z,12.51
2023-03-13T22:44:40.275Z,12.54
2023-03-13T22:47:07.993Z,12.49
2023-03-13T22:49:37.087Z,12.57
2023-03-13T22:52:05.470Z,12.46
2023-03-13T22:54:33.508Z,12.44
2023-03-13T22:57:01.272Z,12.42
2023-03-13T22:59:28.919Z,12.38
2023-03-13T23:01:56.698Z,12.33
2023-03-13T23:04:24.375Z,12.35
2023-03-13T23:06:53.395Z,12.25
2023-03-13T23:09:20.976Z,12.28
2023-03-13T23:11:48.757Z,12.22
2023-03-13T23:14:16.510Z,12.18
2023-03-13T23:16:44.200Z,12.18
2023-03-13T23:19:11.886Z,12.26
2023-03-13T23:21:39.568Z,12.28
2023-03-13T23:24:09.447Z,12.22
2023-03-13T23:26:37.681Z,12.15
2023-03-13T23:29:05.499Z,12.07
2023-03-13T23:31:33.847Z,11.99
2023-03-13T23:34:01.487Z,12.12
2023-03-13T23:36:29.231Z,12.06
2023-03-13T23:38:58.296Z,12.05
2023-03-13T23:41:27.331Z,12.01
2023-03-13T23:43:55.071Z,11.93
2023-03-13T23:46:25.831Z,11.95
2023-03-13T23:48:54.041Z,11.95
2023-03-13T23:51:21.834Z,11.84
2023-03-13T23:53:49.916Z,11.79
2023-03-13T23:56:17.555Z,11.91
2023-03-13T23:58:46.658Z,11.79
